sensor_id;sensor_type;location;lat;lon;timestamp;noise_LAeq;noise_LA_min;noise_LA_max;noise_LA01;noise_LA95
66463;Laerm;56827;52.178;4.500;2023-04-24T00:00:06;52.78;49.95;56.64;;
66463;Laerm;56827;52.178;4.500;2023-04-24T00:00:19;52.70;50.17;59.75;;
66463;Laerm;56827;52.178;4.500;2023-04-24T00:00:29;53.15;49.80;69.32;;
66463;Laerm;56827;52.178;4.500;2023-04-24T00:00:40;55.02;50.01;74.96;;
66463;Laerm;56827;52.178;4.500;2023-04-24T00:00:50;56.55;49.87;79.12;;
66463;Laerm;56827;52.178;4.500;2023-04-24T00:01:01;56.40;48.94;78.76;;
66463;Laerm;56827;52.178;4.500;2023-04-24T00:01:11;53.16;49.26;63.61;;
66463;Laerm;56827;52.178;4.500;2023-04-24T00:01:22;53.28;50.28;60.94;;
66463;Laerm;56827;52.178;4.500;2023-04-24T00:01:33;56.37;50.20;77.32;;
66463;Laerm;56827;52.178;4.500;2023-04-24T00:01:44;56.03;50.30;76.89;;
66463;Laerm;56827;52.178;4.500;2023-04-24T00:01:54;55.00;50.93;71.64;;
66463;Laerm;56827;52.178;4.500;2023-04-24T00:02:05;54.29;51.16;63.34;;
66463;Laerm;56827;52.178;4.500;2023-04-24T00:02:16;53.75;50.44;60.57;;
66463;Laerm;56827;52.178;4.500;2023-04-24T00:02:26;54.15;50.43;69.78;;
66463;Laerm;56827;52.178;4.500;2023-04-24T00:02:37;56.61;51.49;76.83;;
66463;Laerm;56827;52.178;4.500;2023-04-24T00:02:50;55.07;51.78;67.39;;
66463;Laerm;56827;52.178;4.500;2023-04-24T00:03:00;56.27;52.38;74.92;;
66463;Laerm;56827;52.178;4.500;2023-04-24T00:03:10;57.81;52.34;78.46;;
66463;Laerm;56827;52.178;4.500;2023-04-24T00:03:21;55.74;51.72;73.49;;
66463;Laerm;56827;52.178;4.500;2023-04-24T00:03:32;54.22;51.28;61.80;;
66463;Laerm;56827;52.178;4.500;2023-04-24T00:03:42;53.73;50.14;68.65;;
66463;Laerm;56827;52.178;4.500;2023-04-24T00:03:53;53.14;49.89;58.77;;
66463;Laerm;56827;52.178;4.500;2023-04-24T00:04:03;53.24;50.44;60.70;;
66463;Laerm;56827;52.178;4.500;2023-04-24T00:04:13;52.82;49.50;61.26;;
66463;Laerm;56827;52.178;4.500;2023-04-24T00:04:26;53.47;49.74;67.75;;
66463;Laerm;56827;52.178;4.500;2023-04-24T00:04:37;52.78;49.52;60.53;;
66463;Laerm;56827;52.178;4.500;2023-04-24T00:04:50;53.39;49.83;66.86;;
66463;Laerm;56827;52.178;4.500;2023-04-24T00:05:01;56.63;50.37;78.35;;
66463;Laerm;56827;52.178;4.500;2023-04-24T00:05:15;56.37;51.03;76.89;;
66463;Laerm;56827;52.178;4.500;2023-04-24T00:05:27;57.06;51.14;79.64;;
66463;Laerm;56827;52.178;4.500;2023-04-24T00:05:37;54.82;51.76;62.79;;
66463;Laerm;56827;52.178;4.500;2023-04-24T00:05:47;57.33;51.15;79.32;;
66463;Laerm;56827;52.178;4.500;2023-04-24T00:05:57;54.74;51.46;68.25;;
66463;Laerm;56827;52.178;4.500;2023-04-24T00:06:09;59.46;51.66;82.70;;
66463;Laerm;56827;52.178;4.500;2023-04-24T00:06:19;54.13;51.51;60.08;;
66463;Laerm;56827;52.178;4.500;2023-04-24T00:06:29;53.68;50.17;58.35;;
66463;Laerm;56827;52.178;4.500;2023-04-24T00:06:43;53.99;49.90;67.86;;
66463;Laerm;56827;52.178;4.500;2023-04-24T00:06:53;53.34;50.64;58.06;;
66463;Laerm;56827;52.178;4.500;2023-04-24T00:07:07;53.66;50.77;60.78;;
66463;Laerm;56827;52.178;4.500;2023-04-24T00:07:17;53.26;49.98;60.38;;
66463;Laerm;56827;52.178;4.500;2023-04-24T00:07:27;53.22;50.07;58.81;;
66463;Laerm;56827;52.178;4.500;2023-04-24T00:07:38;53.00;49.15;65.09;;
66463;Laerm;56827;52.178;4.500;2023-04-24T00:07:48;52.71;48.89;64.30;;
66463;Laerm;56827;52.178;4.500;2023-04-24T00:07:58;54.57;50.99;70.34;;
66463;Laerm;56827;52.178;4.500;2023-04-24T00:08:08;54.90;51.98;63.12;;
66463;Laerm;56827;52.178;4.500;2023-04-24T00:08:18;54.92;51.42;68.29;;
66463;Laerm;56827;52.178;4.500;2023-04-24T00:08:29;56.19;51.39;75.84;;
66463;Laerm;56827;52.178;4.500;2023-04-24T00:08:39;55.30;51.93;66.64;;
66463;Laerm;56827;52.178;4.500;2023-04-24T00:08:49;55.64;52.34;71.07;;
66463;Laerm;56827;52.178;4.500;2023-04-24T00:09:00;55.84;52.68;71.08;;
66463;Laerm;56827;52.178;4.500;2023-04-24T00:09:10;55.38;52.45;63.43;;
66463;Laerm;56827;52.178;4.500;2023-04-24T00:09:21;55.13;52.06;63.26;;
66463;Laerm;56827;52.178;4.500;2023-04-24T00:09:31;54.76;52.49;60.04;;
66463;Laerm;56827;52.178;4.500;2023-04-24T00:09:41;54.66;52.02;58.27;;
66463;Laerm;56827;52.178;4.500;2023-04-24T00:09:51;55.40;51.40;67.22;;
66463;Laerm;56827;52.178;4.500;2023-04-24T00:10:01;56.07;53.07;71.59;;
66463;Laerm;56827;52.178;4.500;2023-04-24T00:10:12;55.37;51.80;63.69;;
66463;Laerm;56827;52.178;4.500;2023-04-24T00:10:22;58.40;52.13;80.03;;
66463;Laerm;56827;52.178;4.500;2023-04-24T00:10:32;55.32;52.48;63.08;;
66463;Laerm;56827;52.178;4.500;2023-04-24T00:10:43;55.32;52.35;66.01;;
66463;Laerm;56827;52.178;4.500;2023-04-24T00:10:53;60.02;52.47;82.86;;
66463;Laerm;56827;52.178;4.500;2023-04-24T00:11:03;58.55;51.99;80.12;;
66463;Laerm;56827;52.178;4.500;2023-04-24T00:11:14;55.15;52.33;60.15;;
66463;Laerm;56827;52.178;4.500;2023-04-24T00:11:24;55.01;51.93;65.09;;
66463;Laerm;56827;52.178;4.500;2023-04-24T00:11:34;57.38;52.40;78.21;;
66463;Laerm;56827;52.178;4.500;2023-04-24T00:11:44;55.29;52.16;64.45;;
66463;Laerm;56827;52.178;4.500;2023-04-24T00:11:55;55.65;52.67;60.00;;
66463;Laerm;56827;52.178;4.500;2023-04-24T00:12:06;55.83;52.75;60.35;;
66463;Laerm;56827;52.178;4.500;2023-04-24T00:12:16;60.55;52.78;82.18;;
66463;Laerm;56827;52.178;4.500;2023-04-24T00:12:26;55.11;52.40;62.77;;
66463;Laerm;56827;52.178;4.500;2023-04-24T00:12:37;57.96;53.16;76.39;;
66463;Laerm;56827;52.178;4.500;2023-04-24T00:12:47;55.66;53.01;62.40;;
66463;Laerm;56827;52.178;4.500;2023-04-24T00:12:58;57.86;53.88;75.74;;
66463;Laerm;56827;52.178;4.500;2023-04-24T00:13:08;54.97;52.77;65.48;;
66463;Laerm;56827;52.178;4.500;2023-04-24T00:13:18;56.36;52.87;68.56;;
66463;Laerm;56827;52.178;4.500;2023-04-24T00:13:29;57.07;52.84;77.56;;
66463;Laerm;56827;52.178;4.500;2023-04-24T00:13:39;55.34;51.68;63.31;;
66463;Laerm;56827;52.178;4.500;2023-04-24T00:13:49;56.50;52.65;70.62;;
66463;Laerm;56827;52.178;4.500;2023-04-24T00:14:00;56.00;52.80;70.77;;
66463;Laerm;56827;52.178;4.500;2023-04-24T00:14:10;55.40;52.35;66.90;;
66463;Laerm;56827;52.178;4.500;2023-04-24T00:14:20;54.59;52.01;59.20;;
66463;Laerm;56827;52.178;4.500;2023-04-24T00:14:31;56.57;52.22;74.54;;
66463;Laerm;56827;52.178;4.500;2023-04-24T00:14:41;55.58;52.97;66.17;;
66463;Laerm;56827;52.178;4.500;2023-04-24T00:14:51;55.39;52.45;63.59;;
66463;Laerm;56827;52.178;4.500;2023-04-24T00:15:02;54.57;51.69;60.92;;
66463;Laerm;56827;52.178;4.500;2023-04-24T00:15:12;57.67;52.30;75.09;;
66463;Laerm;56827;52.178;4.500;2023-04-24T00:15:22;54.52;52.02;59.46;;
66463;Laerm;56827;52.178;4.500;2023-04-24T00:15:33;53.61;50.73;59.35;;
66463;Laerm;56827;52.178;4.500;2023-04-24T00:15:43;54.99;50.98;71.00;;
66463;Laerm;56827;52.178;4.500;2023-04-24T00:15:53;53.52;50.41;64.69;;
66463;Laerm;56827;52.178;4.500;2023-04-24T00:16:04;53.11;49.89;62.52;;
66463;Laerm;56827;52.178;4.500;2023-04-24T00:16:15;53.49;49.73;65.47;;
66463;Laerm;56827;52.178;4.500;2023-04-24T00:16:25;53.38;50.03;62.57;;
66463;Laerm;56827;52.178;4.500;2023-04-24T00:16:35;52.89;49.79;59.08;;
66463;Laerm;56827;52.178;4.500;2023-04-24T00:16:45;53.00;49.68;58.55;;
66463;Laerm;56827;52.178;4.500;2023-04-24T00:16:56;52.56;49.92;60.45;;
66463;Laerm;56827;52.178;4.500;2023-04-24T00:17:06;52.75;49.68;58.96;;
66463;Laerm;56827;52.178;4.500;2023-04-24T00:17:16;55.09;49.83;75.49;;
66463;Laerm;56827;52.178;4.500;2023-04-24T00:17:29;54.65;49.90;74.41;;
66463;Laerm;56827;52.178;4.500;2023-04-24T00:17:40;54.18;50.56;68.82;;
66463;Laerm;56827;52.178;4.500;2023-04-24T00:17:50;52.99;50.04;58.28;;
66463;Laerm;56827;52.178;4.500;2023-04-24T00:18:01;54.10;50.35;68.53;;
66463;Laerm;56827;52.178;4.500;2023-04-24T00:18:12;55.52;50.77;76.51;;
66463;Laerm;56827;52.178;4.500;2023-04-24T00:18:22;52.65;49.65;62.63;;
66463;Laerm;56827;52.178;4.500;2023-04-24T00:18:32;53.66;50.03;68.99;;
66463;Laerm;56827;52.178;4.500;2023-04-24T00:18:43;53.15;49.87;67.51;;
66463;Laerm;56827;52.178;4.500;2023-04-24T00:18:54;59.94;49.87;84.21;;
66463;Laerm;56827;52.178;4.500;2023-04-24T00:19:05;53.95;50.20;68.55;;
66463;Laerm;56827;52.178;4.500;2023-04-24T00:19:16;53.15;50.16;61.19;;
66463;Laerm;56827;52.178;4.500;2023-04-24T00:19:26;53.28;50.21;58.91;;
66463;Laerm;56827;52.178;4.500;2023-04-24T00:19:37;53.18;50.67;60.45;;
66463;Laerm;56827;52.178;4.500;2023-04-24T00:19:47;55.23;50.73;74.40;;
66463;Laerm;56827;52.178;4.500;2023-04-24T00:19:58;54.14;49.30;73.81;;
66463;Laerm;56827;52.178;4.500;2023-04-24T00:20:08;53.15;50.19;62.48;;
66463;Laerm;56827;52.178;4.500;2023-04-24T00:20:20;52.80;49.65;59.28;;
66463;Laerm;56827;52.178;4.500;2023-04-24T00:20:31;53.43;50.60;59.61;;
66463;Laerm;56827;52.178;4.500;2023-04-24T00:20:45;54.39;50.97;67.39;;
66463;Laerm;56827;52.178;4.500;2023-04-24T00:20:56;53.08;50.52;58.68;;
66463;Laerm;56827;52.178;4.500;2023-04-24T00:21:06;53.07;50.02;60.74;;
66463;Laerm;56827;52.178;4.500;2023-04-24T00:21:17;53.42;49.21;68.20;;
66463;Laerm;56827;52.178;4.500;2023-04-24T00:21:27;52.77;49.78;58.76;;
66463;Laerm;56827;52.178;4.500;2023-04-24T00:21:38;54.28;50.83;61.46;;
66463;Laerm;56827;52.178;4.500;2023-04-24T00:21:48;54.56;51.80;64.27;;
66463;Laerm;56827;52.178;4.500;2023-04-24T00:22:01;57.49;50.48;80.91;;
66463;Laerm;56827;52.178;4.500;2023-04-24T00:22:12;53.90;50.39;65.35;;
66463;Laerm;56827;52.178;4.500;2023-04-24T00:22:25;53.77;50.75;63.92;;
66463;Laerm;56827;52.178;4.500;2023-04-24T00:22:36;53.76;50.47;69.38;;
66463;Laerm;56827;52.178;4.500;2023-04-24T00:22:46;53.25;49.75;68.98;;
66463;Laerm;56827;52.178;4.500;2023-04-24T00:22:56;53.24;49.74;61.66;;
66463;Laerm;56827;52.178;4.500;2023-04-24T00:23:07;53.61;50.40;68.73;;
66463;Laerm;56827;52.178;4.500;2023-04-24T00:23:17;52.95;50.11;58.63;;
66463;Laerm;56827;52.178;4.500;2023-04-24T00:23:27;53.13;50.09;60.36;;
66463;Laerm;56827;52.178;4.500;2023-04-24T00:23:37;53.08;48.63;67.30;;
66463;Laerm;56827;52.178;4.500;2023-04-24T00:23:47;52.79;48.67;65.01;;
66463;Laerm;56827;52.178;4.500;2023-04-24T00:23:58;54.42;49.05;72.53;;
66463;Laerm;56827;52.178;4.500;2023-04-24T00:24:08;54.26;49.77;72.07;;
66463;Laerm;56827;52.178;4.500;2023-04-24T00:24:19;52.41;48.80;57.51;;
66463;Laerm;56827;52.178;4.500;2023-04-24T00:24:29;52.79;49.55;60.18;;
66463;Laerm;56827;52.178;4.500;2023-04-24T00:24:40;53.51;49.69;67.54;;
66463;Laerm;56827;52.178;4.500;2023-04-24T00:24:50;53.53;50.93;65.64;;
66463;Laerm;56827;52.178;4.500;2023-04-24T00:25:00;55.61;50.65;73.04;;
66463;Laerm;56827;52.178;4.500;2023-04-24T00:25:10;53.77;50.35;66.73;;
66463;Laerm;56827;52.178;4.500;2023-04-24T00:25:21;53.53;50.18;59.35;;
66463;Laerm;56827;52.178;4.500;2023-04-24T00:25:31;52.97;49.01;61.47;;
66463;Laerm;56827;52.178;4.500;2023-04-24T00:25:41;52.70;49.12;62.15;;
66463;Laerm;56827;52.178;4.500;2023-04-24T00:25:51;52.45;49.30;58.56;;
66463;Laerm;56827;52.178;4.500;2023-04-24T00:26:02;52.58;49.14;61.92;;
66463;Laerm;56827;52.178;4.500;2023-04-24T00:26:14;54.16;50.53;70.15;;
66463;Laerm;56827;52.178;4.500;2023-04-24T00:26:24;53.45;50.08;60.90;;
66463;Laerm;56827;52.178;4.500;2023-04-24T00:26:35;54.28;50.74;63.74;;
66463;Laerm;56827;52.178;4.500;2023-04-24T00:26:45;54.74;51.67;58.80;;
66463;Laerm;56827;52.178;4.500;2023-04-24T00:26:55;52.76;50.32;57.15;;
66463;Laerm;56827;52.178;4.500;2023-04-24T00:27:06;54.64;50.50;72.86;;
66463;Laerm;56827;52.178;4.500;2023-04-24T00:27:16;51.68;48.45;58.16;;
66463;Laerm;56827;52.178;4.500;2023-04-24T00:27:26;53.64;48.76;60.73;;
66463;Laerm;56827;52.178;4.500;2023-04-24T00:27:36;54.74;50.10;62.24;;
66463;Laerm;56827;52.178;4.500;2023-04-24T00:27:47;55.40;52.01;62.21;;
66463;Laerm;56827;52.178;4.500;2023-04-24T00:27:57;57.88;51.66;78.93;;
66463;Laerm;56827;52.178;4.500;2023-04-24T00:28:07;55.25;51.55;62.74;;
66463;Laerm;56827;52.178;4.500;2023-04-24T00:28:18;55.71;51.42;73.53;;
66463;Laerm;56827;52.178;4.500;2023-04-24T00:28:28;54.63;51.32;59.20;;
66463;Laerm;56827;52.178;4.500;2023-04-24T00:28:38;55.84;52.54;61.08;;
66463;Laerm;56827;52.178;4.500;2023-04-24T00:28:49;58.46;53.93;78.94;;
66463;Laerm;56827;52.178;4.500;2023-04-24T00:28:59;56.29;53.01;70.59;;
66463;Laerm;56827;52.178;4.500;2023-04-24T00:29:09;64.86;53.93;88.88;;
66463;Laerm;56827;52.178;4.500;2023-04-24T00:29:20;56.45;53.72;66.73;;
66463;Laerm;56827;52.178;4.500;2023-04-24T00:29:30;56.17;53.32;63.10;;
66463;Laerm;56827;52.178;4.500;2023-04-24T00:29:40;56.72;52.26;75.19;;
66463;Laerm;56827;52.178;4.500;2023-04-24T00:29:50;55.25;51.63;67.94;;
66463;Laerm;56827;52.178;4.500;2023-04-24T00:30:00;54.64;50.88;60.42;;
66463;Laerm;56827;52.178;4.500;2023-04-24T00:30:11;54.79;50.96;62.72;;
66463;Laerm;56827;52.178;4.500;2023-04-24T00:30:21;56.02;52.26;70.85;;
66463;Laerm;56827;52.178;4.500;2023-04-24T00:30:31;58.27;52.87;77.51;;
66463;Laerm;56827;52.178;4.500;2023-04-24T00:30:41;54.32;49.31;64.83;;
66463;Laerm;56827;52.178;4.500;2023-04-24T00:30:52;58.49;52.85;79.09;;
66463;Laerm;56827;52.178;4.500;2023-04-24T00:31:02;56.79;53.30;72.75;;
66463;Laerm;56827;52.178;4.500;2023-04-24T00:31:12;66.15;54.14;90.33;;
66463;Laerm;56827;52.178;4.500;2023-04-24T00:31:23;62.88;54.12;86.20;;
66463;Laerm;56827;52.178;4.500;2023-04-24T00:31:33;57.27;54.06;68.36;;
66463;Laerm;56827;52.178;4.500;2023-04-24T00:31:46;56.68;53.38;70.44;;
66463;Laerm;56827;52.178;4.500;2023-04-24T00:31:57;55.78;52.97;64.98;;
66463;Laerm;56827;52.178;4.500;2023-04-24T00:32:07;55.43;51.90;64.01;;
66463;Laerm;56827;52.178;4.500;2023-04-24T00:32:17;53.11;49.24;60.88;;
66463;Laerm;56827;52.178;4.500;2023-04-24T00:32:28;52.91;48.16;60.56;;
66463;Laerm;56827;52.178;4.500;2023-04-24T00:32:38;53.88;49.33;58.58;;
66463;Laerm;56827;52.178;4.500;2023-04-24T00:32:48;55.95;52.07;67.28;;
66463;Laerm;56827;52.178;4.500;2023-04-24T00:32:58;57.25;53.78;65.18;;
66463;Laerm;56827;52.178;4.500;2023-04-24T00:33:08;57.27;54.49;66.31;;
66463;Laerm;56827;52.178;4.500;2023-04-24T00:33:19;57.74;54.78;68.01;;
66463;Laerm;56827;52.178;4.500;2023-04-24T00:33:29;56.66;54.10;63.52;;
66463;Laerm;56827;52.178;4.500;2023-04-24T00:33:42;56.62;54.16;62.83;;
66463;Laerm;56827;52.178;4.500;2023-04-24T00:33:53;56.73;53.52;65.86;;
66463;Laerm;56827;52.178;4.500;2023-04-24T00:34:03;56.73;53.52;71.56;;
66463;Laerm;56827;52.178;4.500;2023-04-24T00:34:13;56.37;53.40;62.83;;
66463;Laerm;56827;52.178;4.500;2023-04-24T00:34:24;58.25;53.30;77.15;;
66463;Laerm;56827;52.178;4.500;2023-04-24T00:34:34;57.12;54.08;71.25;;
66463;Laerm;56827;52.178;4.500;2023-04-24T00:34:44;56.12;52.78;62.68;;
66463;Laerm;56827;52.178;4.500;2023-04-24T00:34:54;56.56;53.89;61.18;;
66463;Laerm;56827;52.178;4.500;2023-04-24T00:35:05;57.28;53.16;72.99;;
66463;Laerm;56827;52.178;4.500;2023-04-24T00:35:15;55.91;51.97;66.75;;
66463;Laerm;56827;52.178;4.500;2023-04-24T00:35:26;56.70;53.21;70.76;;
66463;Laerm;56827;52.178;4.500;2023-04-24T00:35:36;56.13;53.11;64.40;;
66463;Laerm;56827;52.178;4.500;2023-04-24T00:35:46;56.36;52.52;74.01;;
66463;Laerm;56827;52.178;4.500;2023-04-24T00:35:56;60.42;52.20;82.48;;
66463;Laerm;56827;52.178;4.500;2023-04-24T00:36:07;56.12;52.09;74.07;;
66463;Laerm;56827;52.178;4.500;2023-04-24T00:36:17;54.69;51.76;61.28;;
66463;Laerm;56827;52.178;4.500;2023-04-24T00:36:29;59.91;52.26;83.11;;
66463;Laerm;56827;52.178;4.500;2023-04-24T00:36:40;55.79;52.98;64.84;;
66463;Laerm;56827;52.178;4.500;2023-04-24T00:36:51;55.35;52.32;63.17;;
66463;Laerm;56827;52.178;4.500;2023-04-24T00:37:02;55.48;51.10;66.34;;
66463;Laerm;56827;52.178;4.500;2023-04-24T00:37:12;54.53;50.77;62.53;;
66463;Laerm;56827;52.178;4.500;2023-04-24T00:37:22;56.20;52.69;65.60;;
66463;Laerm;56827;52.178;4.500;2023-04-24T00:37:32;67.77;52.75;92.15;;
66463;Laerm;56827;52.178;4.500;2023-04-24T00:37:43;55.41;50.71;66.39;;
66463;Laerm;56827;52.178;4.500;2023-04-24T00:37:53;54.63;50.40;66.07;;
66463;Laerm;56827;52.178;4.500;2023-04-24T00:38:03;54.30;51.20;63.10;;
66463;Laerm;56827;52.178;4.500;2023-04-24T00:38:13;55.37;51.79;60.82;;
66463;Laerm;56827;52.178;4.500;2023-04-24T00:38:23;64.43;52.48;88.48;;
66463;Laerm;56827;52.178;4.500;2023-04-24T00:38:34;54.79;51.24;61.83;;
66463;Laerm;56827;52.178;4.500;2023-04-24T00:38:44;58.23;52.55;76.07;;
66463;Laerm;56827;52.178;4.500;2023-04-24T00:38:55;58.47;54.92;70.45;;
66463;Laerm;56827;52.178;4.500;2023-04-24T00:39:05;56.95;52.85;65.30;;
66463;Laerm;56827;52.178;4.500;2023-04-24T00:39:19;55.56;51.99;65.98;;
66463;Laerm;56827;52.178;4.500;2023-04-24T00:39:29;55.22;51.60;65.51;;
66463;Laerm;56827;52.178;4.500;2023-04-24T00:39:39;56.03;51.08;70.30;;
66463;Laerm;56827;52.178;4.500;2023-04-24T00:39:49;57.63;53.50;65.53;;
66463;Laerm;56827;52.178;4.500;2023-04-24T00:40:00;57.95;54.73;65.55;;
66463;Laerm;56827;52.178;4.500;2023-04-24T00:40:10;57.88;54.80;63.94;;
66463;Laerm;56827;52.178;4.500;2023-04-24T00:40:20;57.95;54.54;68.75;;
66463;Laerm;56827;52.178;4.500;2023-04-24T00:40:31;57.08;53.58;62.44;;
66463;Laerm;56827;52.178;4.500;2023-04-24T00:40:41;56.83;54.07;64.67;;
66463;Laerm;56827;52.178;4.500;2023-04-24T00:40:51;56.30;53.74;64.06;;
66463;Laerm;56827;52.178;4.500;2023-04-24T00:41:01;55.78;52.89;66.60;;
66463;Laerm;56827;52.178;4.500;2023-04-24T00:41:12;57.07;53.95;66.17;;
66463;Laerm;56827;52.178;4.500;2023-04-24T00:41:23;57.83;55.26;67.88;;
66463;Laerm;56827;52.178;4.500;2023-04-24T00:41:34;60.60;55.38;80.50;;
66463;Laerm;56827;52.178;4.500;2023-04-24T00:41:45;57.26;53.62;67.25;;
66463;Laerm;56827;52.178;4.500;2023-04-24T00:41:55;58.73;54.06;72.34;;
66463;Laerm;56827;52.178;4.500;2023-04-24T00:42:06;60.14;53.31;77.35;;
66463;Laerm;56827;52.178;4.500;2023-04-24T00:42:17;56.55;52.60;70.23;;
66463;Laerm;56827;52.178;4.500;2023-04-24T00:42:27;58.69;52.46;77.60;;
66463;Laerm;56827;52.178;4.500;2023-04-24T00:42:37;58.03;53.69;73.64;;
66463;Laerm;56827;52.178;4.500;2023-04-24T00:42:48;59.45;54.77;65.53;;
66463;Laerm;56827;52.178;4.500;2023-04-24T00:42:59;58.95;54.17;64.83;;
66463;Laerm;56827;52.178;4.500;2023-04-24T00:43:09;61.30;57.20;79.46;;
66463;Laerm;56827;52.178;4.500;2023-04-24T00:43:19;59.14;54.68;74.51;;
66463;Laerm;56827;52.178;4.500;2023-04-24T00:43:30;60.09;55.77;76.29;;
66463;Laerm;56827;52.178;4.500;2023-04-24T00:43:40;59.86;55.77;76.52;;
66463;Laerm;56827;52.178;4.500;2023-04-24T00:43:51;60.29;56.93;77.00;;
66463;Laerm;56827;52.178;4.500;2023-04-24T00:44:01;58.59;55.51;71.52;;
66463;Laerm;56827;52.178;4.500;2023-04-24T00:44:12;56.90;54.39;64.90;;
66463;Laerm;56827;52.178;4.500;2023-04-24T00:44:22;57.11;53.35;69.59;;
66463;Laerm;56827;52.178;4.500;2023-04-24T00:44:33;60.69;52.96;81.50;;
66463;Laerm;56827;52.178;4.500;2023-04-24T00:44:44;61.66;51.67;85.66;;
66463;Laerm;56827;52.178;4.500;2023-04-24T00:44:55;55.63;52.28;65.47;;
66463;Laerm;56827;52.178;4.500;2023-04-24T00:45:06;57.80;53.28;74.40;;
66463;Laerm;56827;52.178;4.500;2023-04-24T00:45:16;59.83;53.27;82.25;;
66463;Laerm;56827;52.178;4.500;2023-04-24T00:45:27;58.21;53.00;78.77;;
66463;Laerm;56827;52.178;4.500;2023-04-24T00:45:37;57.22;52.42;77.04;;
66463;Laerm;56827;52.178;4.500;2023-04-24T00:45:47;55.17;51.94;64.40;;
66463;Laerm;56827;52.178;4.500;2023-04-24T00:45:57;54.28;50.04;66.01;;
66463;Laerm;56827;52.178;4.500;2023-04-24T00:46:09;53.30;49.49;59.33;;
66463;Laerm;56827;52.178;4.500;2023-04-24T00:46:21;53.31;49.28;63.11;;
66463;Laerm;56827;52.178;4.500;2023-04-24T00:46:31;53.14;50.08;59.32;;
66463;Laerm;56827;52.178;4.500;2023-04-24T00:46:41;54.84;50.90;66.70;;
66463;Laerm;56827;52.178;4.500;2023-04-24T00:46:52;61.00;51.15;84.84;;
66463;Laerm;56827;52.178;4.500;2023-04-24T00:47:04;53.96;50.24;63.86;;
66463;Laerm;56827;52.178;4.500;2023-04-24T00:47:14;54.39;50.50;68.95;;
66463;Laerm;56827;52.178;4.500;2023-04-24T00:47:25;54.76;50.45;62.37;;
66463;Laerm;56827;52.178;4.500;2023-04-24T00:47:35;54.44;50.11;59.64;;
66463;Laerm;56827;52.178;4.500;2023-04-24T00:47:46;54.91;51.21;61.32;;
66463;Laerm;56827;52.178;4.500;2023-04-24T00:47:56;60.92;50.41;83.31;;
66463;Laerm;56827;52.178;4.500;2023-04-24T00:48:07;59.78;51.03;83.23;;
66463;Laerm;56827;52.178;4.500;2023-04-24T00:48:17;53.98;49.87;65.99;;
66463;Laerm;56827;52.178;4.500;2023-04-24T00:48:28;54.68;49.26;66.35;;
66463;Laerm;56827;52.178;4.500;2023-04-24T00:48:40;54.12;50.99;62.37;;
66463;Laerm;56827;52.178;4.500;2023-04-24T00:48:51;54.18;50.91;62.94;;
66463;Laerm;56827;52.178;4.500;2023-04-24T00:49:01;55.24;51.46;70.59;;
66463;Laerm;56827;52.178;4.500;2023-04-24T00:49:13;54.25;51.03;64.46;;
66463;Laerm;56827;52.178;4.500;2023-04-24T00:49:23;53.20;49.27;60.65;;
66463;Laerm;56827;52.178;4.500;2023-04-24T00:49:34;52.76;49.35;62.42;;
66463;Laerm;56827;52.178;4.500;2023-04-24T00:49:44;52.05;49.03;62.15;;
66463;Laerm;56827;52.178;4.500;2023-04-24T00:49:54;53.21;49.38;57.89;;
66463;Laerm;56827;52.178;4.500;2023-04-24T00:50:05;52.31;49.63;57.40;;
66463;Laerm;56827;52.178;4.500;2023-04-24T00:50:16;51.89;48.43;58.86;;
66463;Laerm;56827;52.178;4.500;2023-04-24T00:50:26;52.08;49.16;59.20;;
66463;Laerm;56827;52.178;4.500;2023-04-24T00:50:36;52.53;49.40;60.16;;
66463;Laerm;56827;52.178;4.500;2023-04-24T00:50:46;53.04;49.18;66.84;;
66463;Laerm;56827;52.178;4.500;2023-04-24T00:50:57;53.57;49.76;59.32;;
66463;Laerm;56827;52.178;4.500;2023-04-24T00:51:08;54.50;51.18;61.37;;
66463;Laerm;56827;52.178;4.500;2023-04-24T00:51:18;53.85;50.37;63.28;;
66463;Laerm;56827;52.178;4.500;2023-04-24T00:51:29;52.90;49.90;58.90;;
66463;Laerm;56827;52.178;4.500;2023-04-24T00:51:43;53.06;49.47;57.44;;
66463;Laerm;56827;52.178;4.500;2023-04-24T00:51:56;52.95;49.31;60.65;;
66463;Laerm;56827;52.178;4.500;2023-04-24T00:52:06;57.67;49.43;81.19;;
66463;Laerm;56827;52.178;4.500;2023-04-24T00:52:18;52.31;47.90;59.02;;
66463;Laerm;56827;52.178;4.500;2023-04-24T00:52:29;54.26;49.42;73.71;;
66463;Laerm;56827;52.178;4.500;2023-04-24T00:52:41;52.90;49.93;59.93;;
66463;Laerm;56827;52.178;4.500;2023-04-24T00:52:51;52.46;49.15;60.71;;
66463;Laerm;56827;52.178;4.500;2023-04-24T00:53:01;52.74;49.03;61.09;;
66463;Laerm;56827;52.178;4.500;2023-04-24T00:53:11;53.31;49.88;63.00;;
66463;Laerm;56827;52.178;4.500;2023-04-24T00:53:22;53.36;49.64;64.95;;
66463;Laerm;56827;52.178;4.500;2023-04-24T00:53:32;55.24;49.64;74.52;;
66463;Laerm;56827;52.178;4.500;2023-04-24T00:53:42;52.39;48.95;59.24;;
66463;Laerm;56827;52.178;4.500;2023-04-24T00:53:53;52.95;48.49;66.92;;
66463;Laerm;56827;52.178;4.500;2023-04-24T00:54:03;52.30;48.09;58.13;;
66463;Laerm;56827;52.178;4.500;2023-04-24T00:54:13;53.22;50.18;61.44;;
66463;Laerm;56827;52.178;4.500;2023-04-24T00:54:23;52.80;49.05;63.14;;
66463;Laerm;56827;52.178;4.500;2023-04-24T00:54:34;52.58;49.15;59.18;;
66463;Laerm;56827;52.178;4.500;2023-04-24T00:54:44;52.27;49.48;58.73;;
66463;Laerm;56827;52.178;4.500;2023-04-24T00:54:55;52.10;48.76;59.77;;
66463;Laerm;56827;52.178;4.500;2023-04-24T00:55:05;52.11;48.42;67.03;;
66463;Laerm;56827;52.178;4.500;2023-04-24T00:55:16;51.52;47.88;60.75;;
66463;Laerm;56827;52.178;4.500;2023-04-24T00:55:26;51.91;48.06;59.63;;
66463;Laerm;56827;52.178;4.500;2023-04-24T00:55:38;52.04;47.90;62.69;;
66463;Laerm;56827;52.178;4.500;2023-04-24T00:55:49;50.97;46.62;59.24;;
66463;Laerm;56827;52.178;4.500;2023-04-24T00:55:59;51.80;48.22;68.35;;
66463;Laerm;56827;52.178;4.500;2023-04-24T00:56:10;51.29;47.80;62.27;;
66463;Laerm;56827;52.178;4.500;2023-04-24T00:56:20;50.46;46.86;58.17;;
66463;Laerm;56827;52.178;4.500;2023-04-24T00:56:31;50.91;46.68;59.96;;
66463;Laerm;56827;52.178;4.500;2023-04-24T00:56:41;51.69;47.81;58.54;;
66463;Laerm;56827;52.178;4.500;2023-04-24T00:56:52;51.48;48.49;58.22;;
66463;Laerm;56827;52.178;4.500;2023-04-24T00:57:02;51.90;48.79;58.75;;
66463;Laerm;56827;52.178;4.500;2023-04-24T00:57:13;52.32;48.81;62.37;;
66463;Laerm;56827;52.178;4.500;2023-04-24T00:57:24;52.77;49.21;61.00;;
66463;Laerm;56827;52.178;4.500;2023-04-24T00:57:35;52.76;48.23;70.96;;
66463;Laerm;56827;52.178;4.500;2023-04-24T00:57:45;54.06;48.01;75.29;;
66463;Laerm;56827;52.178;4.500;2023-04-24T00:57:56;51.65;48.16;59.85;;
66463;Laerm;56827;52.178;4.500;2023-04-24T00:58:07;50.93;48.07;57.31;;
66463;Laerm;56827;52.178;4.500;2023-04-24T00:58:17;51.20;47.41;56.36;;
66463;Laerm;56827;52.178;4.500;2023-04-24T00:58:28;51.97;48.48;63.59;;
66463;Laerm;56827;52.178;4.500;2023-04-24T00:58:39;52.08;47.74;65.17;;
66463;Laerm;56827;52.178;4.500;2023-04-24T00:58:50;53.82;48.37;70.24;;
66463;Laerm;56827;52.178;4.500;2023-04-24T00:59:00;53.26;49.05;71.95;;
66463;Laerm;56827;52.178;4.500;2023-04-24T00:59:15;52.02;48.65;62.81;;
66463;Laerm;56827;52.178;4.500;2023-04-24T00:59:26;51.81;48.71;57.72;;